Sangre de Cristo Ranches, Colorado
Current Conditions -  °F | °C
As of 3:10 AM on Sunday 26 Oct 2014 (Local Time) from KVTP Reporting Station
Clear Clear  
Wind Chill: 39°   Ceiling: Unl
Heat Index: 45°   Visibility: 10mi
Dew Point: 27°   Wind: 12mph
Humidity: 49%   Direction: 200°SSW
Pressure: 30.25"   Gusts: 26mph
Location:  37.4744°N, 105.319°W
Report Text: KVTP 260910Z AUTO 20010G23KT 160V260 10SM CLR 07/M03 A3025 RMK AO2
Loading
Personal Weather Stations






























Interactive Weather Map
Tropical Storm Tracking
New forecast layout! Learn more

10-Day Weather Forecast

Advertisements
Track Severe Weather on mobile